Time;durP1;ratioP1;P1;durP2;ratioP2;P2;SDS_P1;SDS_P2;PMS_P1;PMS_P2;Temp;Humidity;BMP_temperature;BMP_pressure;BME280_temperature;BME280_humidity;BME280_pressure;Samples;Min_cycle;Max_cycle;Signal;HPM_P1;HPM_P2
2021/07/03 00:02:17;;;;;;;25.73;18.60;;;14.10;99.90;;;;;;6185004;23;20203;-76
2021/07/03 00:04:44;;;;;;;29.07;19.10;;;14.10;99.90;;;;;;6184525;23;20163;-76
2021/07/03 00:07:11;;;;;;;26.30;19.63;;;14.10;99.90;;;;;;6185003;23;20478;-76
2021/07/03 00:09:39;;;;;;;25.07;18.50;;;14.00;99.90;;;;;;6183876;23;20184;-76
2021/07/03 00:12:08;;;;;;;26.30;18.80;;;14.10;99.90;;;;;;6184912;23;20160;-76
2021/07/03 00:14:36;;;;;;;23.37;18.10;;;14.10;99.90;;;;;;6184513;23;20549;-76
2021/07/03 00:17:03;;;;;;;25.87;18.73;;;14.00;99.90;;;;;;6184715;23;20164;-76
2021/07/03 00:19:30;;;;;;;28.97;18.73;;;13.80;99.90;;;;;;6184479;23;20594;-75
2021/07/03 00:21:57;;;;;;;25.00;18.83;;;13.90;99.90;;;;;;6184852;23;20164;-75
2021/07/03 00:24:24;;;;;;;22.60;17.80;;;13.90;99.90;;;;;;6184706;23;20174;-76
2021/07/03 00:26:51;;;;;;;22.30;16.53;;;13.80;99.90;;;;;;6184520;23;20171;-75
2021/07/03 00:29:19;;;;;;;24.80;18.53;;;13.60;99.90;;;;;;6183997;23;20192;-76
2021/07/03 00:31:46;;;;;;;23.47;16.10;;;13.60;99.90;;;;;;6183934;23;20164;-76
2021/07/03 00:34:12;;;;;;;23.60;17.73;;;13.70;99.90;;;;;;6184652;23;20160;-76
2021/07/03 00:36:39;;;;;;;27.03;17.50;;;13.70;99.90;;;;;;6184377;23;20160;-76
2021/07/03 00:39:06;;;;;;;26.07;18.97;;;13.70;99.90;;;;;;6184020;23;20156;-76
2021/07/03 00:41:33;;;;;;;25.20;18.77;;;13.80;99.90;;;;;;6184332;23;20160;-76
2021/07/03 00:44:00;;;;;;;27.10;19.50;;;13.90;99.90;;;;;;6184698;23;20170;-76
2021/07/03 00:46:28;;;;;;;25.77;19.70;;;13.90;99.90;;;;;;6184452;23;20541;-76
2021/07/03 00:48:55;;;;;;;25.73;18.87;;;13.80;99.90;;;;;;6183786;23;20666;-76
2021/07/03 00:51:22;;;;;;;25.57;18.43;;;13.70;99.90;;;;;;6183968;23;20160;-76
2021/07/03 00:53:49;;;;;;;24.53;19.30;;;13.60;99.90;;;;;;6184051;23;20160;-75
2021/07/03 00:56:16;;;;;;;28.30;19.50;;;13.50;99.90;;;;;;6183820;23;20166;-75
2021/07/03 00:58:43;;;;;;;20.50;14.83;;;13.50;99.90;;;;;;6184180;23;20266;-75
2021/07/03 01:01:10;;;;;;;22.13;14.30;;;13.30;99.90;;;;;;6183074;23;20196;-76
2021/07/03 01:03:38;;;;;;;27.03;16.40;;;13.30;99.90;;;;;;6184204;23;20243;-75
2021/07/03 01:06:05;;;;;;;21.27;15.90;;;13.00;99.90;;;;;;6184406;23;20659;-76
2021/07/03 01:08:32;;;;;;;27.03;15.87;;;13.00;99.90;;;;;;6183256;23;20515;-75
2021/07/03 01:10:59;;;;;;;20.87;16.10;;;12.90;99.90;;;;;;6183751;23;20160;-76
2021/07/03 01:13:27;;;;;;;22.73;15.93;;;12.90;99.90;;;;;;6183998;23;20239;-76
2021/07/03 01:15:54;;;;;;;24.40;17.07;;;12.90;99.90;;;;;;6184325;23;20441;-75
2021/07/03 01:18:21;;;;;;;24.20;18.00;;;12.90;99.90;;;;;;6184362;23;20163;-76
2021/07/03 01:20:53;;;;;;;23.10;17.80;;;13.00;99.90;;;;;;6183457;23;20164;-76
2021/07/03 01:23:22;;;;;;;23.70;17.53;;;13.00;99.90;;;;;;6183593;23;20167;-75
2021/07/03 01:25:49;;;;;;;21.40;16.00;;;13.00;99.90;;;;;;6184550;23;20160;-75
2021/07/03 01:28:16;;;;;;;23.37;17.63;;;13.10;99.90;;;;;;6183610;23;20179;-75
2021/07/03 01:30:43;;;;;;;21.80;16.93;;;12.90;99.90;;;;;;6183185;23;20168;-76
2021/07/03 01:33:09;;;;;;;24.77;18.13;;;12.80;99.90;;;;;;6184216;23;20170;-76
2021/07/03 01:35:38;;;;;;;22.73;16.57;;;12.90;99.90;;;;;;6184005;23;20166;-76
2021/07/03 01:38:05;;;;;;;27.33;17.80;;;13.00;99.90;;;;;;6183818;23;20156;-76
2021/07/03 01:40:33;;;;;;;24.37;18.47;;;12.90;99.90;;;;;;6183485;23;20251;-76
2021/07/03 01:43:00;;;;;;;24.23;18.17;;;12.80;99.90;;;;;;6183797;23;20160;-76
2021/07/03 01:45:27;;;;;;;23.53;16.70;;;12.90;99.90;;;;;;6184071;23;20160;-76
2021/07/03 01:47:53;;;;;;;21.33;16.67;;;12.90;99.90;;;;;;6183520;23;20629;-76
2021/07/03 01:50:20;;;;;;;21.03;14.37;;;12.80;99.90;;;;;;6183491;23;20160;-76
2021/07/03 01:52:50;;;;;;;17.13;11.80;;;12.80;99.90;;;;;;6184045;23;20196;-76
2021/07/03 01:55:16;;;;;;;30.43;11.73;;;12.40;99.90;;;;;;6184131;23;20275;-76
2021/07/03 01:57:45;;;;;;;35.03;14.03;;;12.20;99.90;;;;;;6183617;23;20219;-76
2021/07/03 02:00:13;;;;;;;30.53;13.67;;;12.10;99.90;;;;;;6183332;23;20160;-76
2021/07/03 02:02:39;;;;;;;22.57;11.60;;;12.20;99.90;;;;;;6183706;23;20166;-76
2021/07/03 02:05:08;;;;;;;20.03;12.93;;;12.10;99.90;;;;;;6183407;23;20172;-76
2021/07/03 02:07:35;;;;;;;19.03;13.67;;;12.20;99.90;;;;;;6183335;23;20543;-76
2021/07/03 02:10:01;;;;;;;20.00;14.40;;;12.20;99.90;;;;;;6180419;23;20263;-76
2021/07/03 02:12:28;;;;;;;22.03;15.50;;;12.40;99.90;;;;;;6183211;23;20186;-76
2021/07/03 02:14:57;;;;;;;22.77;16.83;;;12.60;99.90;;;;;;6183512;23;20587;-76
2021/07/03 02:17:23;;;;;;;26.57;19.13;;;12.80;99.90;;;;;;6183564;23;20235;-76
2021/07/03 02:19:50;;;;;;;25.90;19.87;;;12.80;99.90;;;;;;6182807;23;20239;-76
2021/07/03 02:22:17;;;;;;;26.90;21.27;;;12.90;99.90;;;;;;6183722;23;20164;-76
2021/07/03 02:24:44;;;;;;;29.70;21.33;;;12.90;99.90;;;;;;6183137;23;20598;-76
2021/07/03 02:27:11;;;;;;;27.67;20.27;;;12.90;99.90;;;;;;6184341;23;20159;-75
2021/07/03 02:29:38;;;;;;;31.37;22.47;;;12.80;99.90;;;;;;6184063;23;20184;-76
2021/07/03 02:32:07;;;;;;;30.17;21.27;;;12.80;99.90;;;;;;6183699;23;20166;-76
2021/07/03 02:34:33;;;;;;;29.87;20.77;;;12.70;99.90;;;;;;6183670;23;20164;-76
2021/07/03 02:37:00;;;;;;;27.70;20.53;;;12.50;99.90;;;;;;6184392;23;20182;-73
2021/07/03 02:39:27;;;;;;;29.63;21.07;;;12.40;99.90;;;;;;6184488;23;20160;-73
2021/07/03 02:41:54;;;;;;;28.23;19.33;;;12.40;99.90;;;;;;6184521;23;20166;-74
2021/07/03 02:44:21;;;;;;;28.43;20.73;;;12.40;99.90;;;;;;6184809;23;20167;-73
2021/07/03 02:46:48;;;;;;;26.03;18.37;;;12.60;99.90;;;;;;6184577;23;20168;-74
2021/07/03 02:49:20;;;;;;;25.67;18.47;;;12.70;99.90;;;;;;6184325;23;20190;-73
2021/07/03 02:51:47;;;;;;;26.93;17.97;;;12.70;99.90;;;;;;6184086;23;20199;-74
2021/07/03 02:54:13;;;;;;;25.23;17.87;;;12.60;99.90;;;;;;6184733;23;20662;-73
2021/07/03 02:56:40;;;;;;;28.50;18.60;;;12.60;99.90;;;;;;6185185;23;20160;-74
2021/07/03 02:59:07;;;;;;;25.67;18.40;;;12.60;99.90;;;;;;6184849;23;20243;-74
2021/07/03 03:01:34;;;;;;;25.87;17.17;;;12.50;99.90;;;;;;6184766;23;20634;-74
2021/07/03 03:04:01;;;;;;;26.30;17.07;;;12.60;99.90;;;;;;6184489;23;20234;-74
2021/07/03 03:06:29;;;;;;;25.40;17.43;;;12.60;99.90;;;;;;6183938;23;20254;-73
2021/07/03 03:08:56;;;;;;;26.60;17.67;;;12.50;99.90;;;;;;6183939;23;20190;-74
2021/07/03 03:11:23;;;;;;;25.23;17.20;;;12.60;99.90;;;;;;6184003;23;20492;-74
2021/07/03 03:13:50;;;;;;;25.80;16.93;;;12.50;99.90;;;;;;6184480;23;20167;-74
2021/07/03 03:16:17;;;;;;;24.90;16.77;;;12.60;99.90;;;;;;6183713;23;20160;-74
2021/07/03 03:18:44;;;;;;;25.60;17.10;;;12.60;99.90;;;;;;6184783;23;20235;-73
2021/07/03 03:21:10;;;;;;;25.90;17.30;;;12.40;99.90;;;;;;6184325;23;20160;-73
2021/07/03 03:23:39;;;;;;;28.13;17.70;;;12.40;99.90;;;;;;6184994;23;20171;-74
2021/07/03 03:26:05;;;;;;;29.63;18.30;;;12.40;99.90;;;;;;6185006;23;20238;-74
2021/07/03 03:28:32;;;;;;;28.50;17.07;;;12.50;99.90;;;;;;6184741;23;20482;-74
2021/07/03 03:30:59;;;;;;;26.70;17.70;;;12.60;99.90;;;;;;6184241;23;20164;-74
2021/07/03 03:33:26;;;;;;;23.37;16.27;;;12.60;99.90;;;;;;6184421;23;20160;-74
2021/07/03 03:35:53;;;;;;;27.00;17.20;;;12.60;99.90;;;;;;6184391;23;20467;-74
2021/07/03 03:38:20;;;;;;;27.00;16.63;;;12.70;99.90;;;;;;6184353;23;20239;-74
2021/07/03 03:40:48;;;;;;;23.00;16.30;;;12.70;99.90;;;;;;6183175;23;20156;-74
2021/07/03 03:43:15;;;;;;;25.20;16.90;;;12.70;99.90;;;;;;6184228;23;20164;-74
2021/07/03 03:45:42;;;;;;;26.37;17.07;;;12.70;99.90;;;;;;6184297;23;20167;-74
2021/07/03 03:48:09;;;;;;;23.00;15.77;;;12.60;99.90;;;;;;6183555;23;20563;-74
2021/07/03 03:50:37;;;;;;;25.20;15.33;;;12.70;99.90;;;;;;6183968;23;20183;-73
2021/07/03 03:53:04;;;;;;;25.90;16.47;;;12.60;99.90;;;;;;6184148;23;20159;-73
2021/07/03 03:55:31;;;;;;;25.97;17.07;;;12.70;99.90;;;;;;6183961;23;20247;-74
2021/07/03 03:57:59;;;;;;;23.03;15.97;;;12.80;99.90;;;;;;6197688;22;20199;-71
2021/07/03 04:00:26;;;;;;;23.73;16.23;;;12.90;99.90;;;;;;6209570;23;20155;-68
2021/07/03 04:02:53;;;;;;;21.13;14.73;;;12.90;99.90;;;;;;6212676;23;20156;-70
2021/07/03 04:05:20;;;;;;;25.07;16.33;;;13.10;99.90;;;;;;6212286;23;20238;-71
2021/07/03 04:07:47;;;;;;;26.53;17.83;;;13.30;99.90;;;;;;6211692;23;20209;-70
2021/07/03 04:10:15;;;;;;;30.07;17.43;;;13.30;99.90;;;;;;6208609;23;20300;-70
2021/07/03 04:12:43;;;;;;;21.27;14.20;;;13.50;99.90;;;;;;6209516;23;20266;-70
2021/07/03 04:15:12;;;;;;;21.20;13.87;;;14.30;99.90;;;;;;6211191;23;20210;-70
2021/07/03 04:17:39;;;;;;;19.57;13.47;;;14.70;99.90;;;;;;6212354;23;20155;-71
2021/07/03 04:20:10;;;;;;;20.90;13.30;;;15.00;99.90;;;;;;6212669;23;20167;-70
2021/07/03 04:22:37;;;;;;;23.23;13.93;;;15.50;99.90;;;;;;6211601;23;20179;-70
2021/07/03 04:25:05;;;;;;;19.00;12.80;;;15.40;99.90;;;;;;6212524;23;20159;-71
2021/07/03 04:27:33;;;;;;;17.87;12.80;;;14.90;99.90;;;;;;6212054;23;20649;-70
2021/07/03 04:30:00;;;;;;;19.90;13.03;;;14.80;99.90;;;;;;6213006;23;20695;-71
2021/07/03 04:32:28;;;;;;;21.83;13.27;;;14.40;99.90;;;;;;6213204;23;20648;-70
2021/07/03 04:34:55;;;;;;;17.17;12.53;;;14.20;99.90;;;;;;6212883;23;20155;-70
2021/07/03 04:37:22;;;;;;;21.53;13.50;;;14.20;99.90;;;;;;6213182;23;20472;-70
2021/07/03 04:39:49;;;;;;;19.23;13.47;;;14.60;99.90;;;;;;6213391;23;20574;-70
2021/07/03 04:42:16;;;;;;;19.90;12.63;;;14.60;99.90;;;;;;6213087;23;20163;-70
2021/07/03 04:44:43;;;;;;;19.30;11.53;;;14.60;99.90;;;;;;6213406;23;20582;-69
2021/07/03 04:47:10;;;;;;;18.87;12.90;;;14.50;99.90;;;;;;6213115;23;20197;-70
2021/07/03 04:49:38;;;;;;;19.87;12.23;;;14.70;99.90;;;;;;6212026;23;20496;-69
2021/07/03 04:52:06;;;;;;;19.43;11.97;;;14.60;99.90;;;;;;6213479;23;20206;-69
2021/07/03 04:54:33;;;;;;;19.30;12.80;;;14.80;99.90;;;;;;6213034;23;20210;-70
2021/07/03 04:57:07;;;;;;;19.10;12.50;;;14.90;99.90;;;;;;6212028;23;20160;-69
2021/07/03 04:59:35;;;;;;;17.30;12.57;;;14.70;99.90;;;;;;6212370;23;20162;-69
2021/07/03 05:02:03;;;;;;;21.03;13.00;;;14.60;99.90;;;;;;6212916;23;20214;-69
2021/07/03 05:04:29;;;;;;;20.63;13.93;;;14.80;99.90;;;;;;6213666;23;20518;-69
2021/07/03 05:06:58;;;;;;;21.63;13.83;;;15.00;99.90;;;;;;6212910;23;20214;-70
2021/07/03 05:09:25;;;;;;;20.03;13.20;;;15.50;99.90;;;;;;6213256;23;20179;-69
2021/07/03 05:11:52;;;;;;;19.97;13.13;;;15.80;99.90;;;;;;6212348;23;20171;-69
2021/07/03 05:14:19;;;;;;;18.57;12.90;;;15.70;99.90;;;;;;6213117;23;20156;-70
2021/07/03 05:16:46;;;;;;;19.63;12.90;;;15.70;99.90;;;;;;6213521;23;20163;-69
2021/07/03 05:19:13;;;;;;;18.93;13.43;;;15.90;99.90;;;;;;6212787;23;20222;-70
2021/07/03 05:21:41;;;;;;;22.73;13.13;;;16.00;99.90;;;;;;6212531;23;20217;-69
2021/07/03 05:24:09;;;;;;;21.93;14.17;;;16.00;99.90;;;;;;6212465;23;20160;-69
2021/07/03 05:26:37;;;;;;;23.77;14.50;;;16.20;99.90;;;;;;6212515;23;20155;-69
2021/07/03 05:29:04;;;;;;;20.60;14.17;;;16.30;99.90;;;;;;6212614;23;20489;-69
2021/07/03 05:31:32;;;;;;;20.07;13.27;;;16.20;99.90;;;;;;6212233;23;20163;-69
2021/07/03 05:33:59;;;;;;;19.80;13.43;;;16.20;99.90;;;;;;6213006;23;20214;-69
2021/07/03 05:36:26;;;;;;;19.00;13.20;;;16.30;99.90;;;;;;6212466;23;20171;-69
2021/07/03 05:38:53;;;;;;;20.17;13.00;;;16.40;99.90;;;;;;6212962;23;20187;-69
2021/07/03 05:41:23;;;;;;;23.70;13.50;;;16.40;99.90;;;;;;6212544;23;20159;-69
2021/07/03 05:43:50;;;;;;;21.50;15.50;;;16.60;99.90;;;;;;6212932;23;20163;-69
2021/07/03 05:46:17;;;;;;;20.17;13.23;;;17.00;99.90;;;;;;6212352;23;20167;-69
2021/07/03 05:48:44;;;;;;;19.90;13.70;;;17.30;99.90;;;;;;6212433;23;20155;-69
2021/07/03 05:51:13;;;;;;;20.65;13.32;;;17.30;99.90;;;;;;6212144;23;20264;-69
2021/07/03 05:53:40;;;;;;;19.58;13.15;;;17.10;99.90;;;;;;6212973;23;20510;-70
2021/07/03 05:56:07;;;;;;;18.92;13.05;;;17.10;99.90;;;;;;6212743;23;20586;-69
2021/07/03 05:58:36;;;;;;;18.60;13.10;;;17.20;99.90;;;;;;6211622;23;20666;-69
2021/07/03 06:01:03;;;;;;;21.40;12.25;;;17.50;99.90;;;;;;6213526;23;20209;-69
2021/07/03 06:03:29;;;;;;;19.15;13.15;;;17.30;99.90;;;;;;6214329;23;20233;-69
2021/07/03 06:05:56;;;;;;;17.88;12.65;;;17.00;99.90;;;;;;6214828;23;20458;-69
2021/07/03 06:08:23;;;;;;;18.00;12.07;;;16.90;99.90;;;;;;6214621;23;20574;-69
2021/07/03 06:10:50;;;;;;;19.52;13.60;;;16.90;99.90;;;;;;6214617;23;20621;-72
2021/07/03 06:13:17;;;;;;;19.30;12.80;;;17.00;99.90;;;;;;6214322;23;20159;-72
2021/07/03 06:15:46;;;;;;;17.83;13.23;;;17.10;99.90;;;;;;6214416;23;20209;-72
2021/07/03 06:18:13;;;;;;;19.88;13.82;;;16.90;99.90;;;;;;6214617;23;20159;-72
2021/07/03 06:20:40;;;;;;;19.52;13.63;;;17.00;99.90;;;;;;6213330;23;20475;-72
2021/07/03 06:23:07;;;;;;;19.53;12.93;;;17.10;99.90;;;;;;6212010;23;20179;-72
2021/07/03 06:25:34;;;;;;;18.50;11.97;;;17.20;99.90;;;;;;6211899;23;20242;-72
2021/07/03 06:28:01;;;;;;;18.55;12.43;;;17.20;99.90;;;;;;6212324;23;20163;-72
2021/07/03 06:30:28;;;;;;;17.80;12.57;;;17.20;99.90;;;;;;6211595;23;20198;-72
2021/07/03 06:32:56;;;;;;;18.33;12.00;;;17.20;99.90;;;;;;6212443;23;20217;-72
2021/07/03 06:35:23;;;;;;;19.73;12.50;;;17.40;99.90;;;;;;6209847;23;20171;-72
2021/07/03 06:37:50;;;;;;;20.77;13.25;;;17.30;99.90;;;;;;6212331;23;20540;-72
2021/07/03 06:40:17;;;;;;;19.02;13.07;;;17.20;99.90;;;;;;6211363;23;20179;-72
2021/07/03 06:42:44;;;;;;;21.65;12.85;;;17.40;99.90;;;;;;6212351;23;20160;-73
2021/07/03 06:45:11;;;;;;;18.63;12.65;;;17.30;99.90;;;;;;6212215;23;20605;-73
2021/07/03 06:47:38;;;;;;;18.30;13.13;;;17.50;99.90;;;;;;6212218;23;20163;-73
2021/07/03 06:50:08;;;;;;;17.90;12.55;;;17.50;99.90;;;;;;6212083;23;20234;-72
2021/07/03 06:52:35;;;;;;;18.75;12.52;;;17.80;99.90;;;;;;6210350;23;20183;-72
2021/07/03 06:55:03;;;;;;;18.60;11.90;;;17.70;99.90;;;;;;6212972;23;20555;-72
2021/07/03 06:57:30;;;;;;;19.55;12.77;;;17.70;99.90;;;;;;6213504;23;20225;-72
2021/07/03 06:59:57;;;;;;;18.02;12.27;;;17.80;99.90;;;;;;6214611;23;20476;-72
2021/07/03 07:02:25;;;;;;;17.10;11.95;;;17.80;99.90;;;;;;6215126;23;20159;-72
2021/07/03 07:04:51;;;;;;;18.20;12.07;;;17.80;99.90;;;;;;6215341;23;20586;-72
2021/07/03 07:07:20;;;;;;;18.17;12.45;;;17.70;99.90;;;;;;6215046;23;20166;-72
2021/07/03 07:09:47;;;;;;;19.33;13.82;;;17.90;99.90;;;;;;6210076;23;20594;-72
2021/07/03 07:12:14;;;;;;;17.27;13.27;;;18.00;99.90;;;;;;6213737;23;20163;-72
2021/07/03 07:14:42;;;;;;;18.95;12.27;;;18.00;99.90;;;;;;6214634;23;20170;-72
2021/07/03 07:17:09;;;;;;;21.67;14.25;;;18.20;99.90;;;;;;6215365;23;20160;-73
2021/07/03 07:19:36;;;;;;;30.67;25.30;;;18.30;99.90;;;;;;6213873;23;20166;-73
2021/07/03 07:22:03;;;;;;;25.00;19.25;;;18.30;99.90;;;;;;6214910;23;20246;-73
2021/07/03 07:24:32;;;;;;;22.55;15.57;;;18.40;99.90;;;;;;6213586;23;20483;-73
2021/07/03 07:26:58;;;;;;;21.70;13.98;;;18.30;99.90;;;;;;6215070;23;20160;-73
2021/07/03 07:29:26;;;;;;;18.88;14.05;;;18.40;99.90;;;;;;6214154;23;20166;-73
2021/07/03 07:31:53;;;;;;;22.63;15.20;;;18.50;99.90;;;;;;6214574;23;20183;-73
2021/07/03 07:34:20;;;;;;;20.60;14.82;;;18.50;99.90;;;;;;6214909;23;20204;-73
2021/07/03 07:36:47;;;;;;;21.92;14.82;;;18.40;99.90;;;;;;6215068;23;20461;-73
2021/07/03 07:39:14;;;;;;;23.42;15.07;;;18.50;99.90;;;;;;6214695;23;20622;-73
2021/07/03 07:41:42;;;;;;;21.88;15.10;;;18.60;99.90;;;;;;6214661;23;20162;-73
2021/07/03 07:44:09;;;;;;;22.77;15.25;;;18.70;99.90;;;;;;6214906;23;20163;-73
2021/07/03 07:46:36;;;;;;;21.55;14.68;;;18.90;99.90;;;;;;6214898;23;20608;-73
2021/07/03 07:49:04;;;;;;;21.33;13.90;;;19.10;99.90;;;;;;6214963;23;20163;-73
2021/07/03 07:51:31;;;;;;;18.98;12.98;;;19.10;99.90;;;;;;6214393;23;20229;-73
2021/07/03 07:53:58;;;;;;;24.05;15.05;;;19.20;99.90;;;;;;6215169;23;20159;-73
2021/07/03 07:56:25;;;;;;;23.65;14.77;;;19.10;99.90;;;;;;6214868;23;20600;-73
2021/07/03 07:58:53;;;;;;;22.85;14.85;;;19.10;99.90;;;;;;6214090;23;20649;-72
2021/07/03 08:01:20;;;;;;;19.10;13.93;;;19.20;99.90;;;;;;6214094;23;20243;-73
2021/07/03 08:03:47;;;;;;;20.08;13.13;;;19.10;99.90;;;;;;6214938;23;20213;-73
2021/07/03 08:06:14;;;;;;;21.42;14.38;;;19.30;99.90;;;;;;6215163;23;20159;-73
2021/07/03 08:08:41;;;;;;;20.63;14.35;;;19.30;99.90;;;;;;6214290;23;20614;-72
2021/07/03 08:11:08;;;;;;;20.83;14.73;;;19.30;99.90;;;;;;6213040;23;20179;-73
2021/07/03 08:13:35;;;;;;;21.30;13.23;;;19.40;99.90;;;;;;6212208;23;20163;-73
2021/07/03 08:16:03;;;;;;;20.13;14.32;;;19.50;99.90;;;;;;6214369;23;20243;-73
2021/07/03 08:18:30;;;;;;;20.30;13.43;;;19.50;99.90;;;;;;6214715;23;20160;-73
2021/07/03 08:20:57;;;;;;;20.75;13.27;;;19.60;99.90;;;;;;6212837;23;20247;-73
2021/07/03 08:23:23;;;;;;;19.40;13.73;;;19.60;99.90;;;;;;6214029;23;20202;-73
2021/07/03 08:25:51;;;;;;;17.35;12.43;;;19.70;99.90;;;;;;6214627;23;20165;-72
2021/07/03 08:28:18;;;;;;;19.10;12.60;;;19.90;99.90;;;;;;6214618;23;20251;-73
2021/07/03 08:30:45;;;;;;;18.58;12.55;;;19.80;99.90;;;;;;6213460;23;20210;-73
2021/07/03 08:33:13;;;;;;;19.48;13.77;;;20.00;99.90;;;;;;6214503;23;20570;-73
2021/07/03 08:35:41;;;;;;;19.73;13.13;;;19.90;99.90;;;;;;6213936;23;20170;-72
2021/07/03 08:38:08;;;;;;;18.58;12.00;;;20.10;99.90;;;;;;6214147;23;20396;-72
2021/07/03 08:40:35;;;;;;;17.13;11.88;;;20.10;99.90;;;;;;6213149;23;20156;-72
2021/07/03 08:43:02;;;;;;;19.63;12.35;;;20.30;99.90;;;;;;6214419;23;20442;-72
2021/07/03 08:45:29;;;;;;;18.13;11.20;;;20.40;99.90;;;;;;6214524;23;20487;-73
2021/07/03 08:47:55;;;;;;;17.50;11.60;;;20.30;99.90;;;;;;6213727;23;20238;-72
2021/07/03 08:50:24;;;;;;;18.60;11.70;;;20.60;99.90;;;;;;6213020;23;20631;-72
2021/07/03 08:52:50;;;;;;;13.20;9.10;;;21.00;99.90;;;;;;6212303;23;20218;-72
2021/07/03 08:55:20;;;;;;;18.25;11.07;;;21.40;99.90;;;;;;6214969;23;20163;-73
2021/07/03 08:57:50;;;;;;;16.98;10.95;;;21.60;99.90;;;;;;6208860;23;20277;-73
2021/07/03 09:00:19;;;;;;;14.52;10.02;;;22.20;99.90;;;;;;6208180;23;20179;-73
2021/07/03 09:02:47;;;;;;;15.45;9.50;;;22.00;99.90;;;;;;6210889;23;20190;-73
2021/07/03 09:05:24;;;;;;;12.93;9.18;;;22.40;99.90;;;;;;6210174;23;20187;-73
2021/07/03 09:07:52;;;;;;;13.10;8.23;;;22.70;99.90;;;;;;6210660;23;20178;-73
2021/07/03 09:10:22;;;;;;;10.25;8.05;;;23.20;99.90;;;;;;6209946;23;20187;-72
2021/07/03 09:12:51;;;;;;;11.30;8.23;;;22.60;99.90;;;;;;6211120;23;20261;-73
2021/07/03 09:15:21;;;;;;;12.70;8.50;;;22.50;99.90;;;;;;6210923;23;20190;-73
2021/07/03 09:17:53;;;;;;;11.43;7.90;;;23.40;99.90;;;;;;6210501;23;20179;-73
2021/07/03 09:20:34;;;;;;;13.40;8.10;;;23.50;99.90;;;;;;6210313;23;20253;-72
2021/07/03 09:23:04;;;;;;;13.82;8.32;;;23.70;99.90;;;;;;6210455;23;20209;-73
2021/07/03 09:25:32;;;;;;;12.90;8.35;;;23.70;99.90;;;;;;6211089;23;20499;-73
2021/07/03 09:28:06;;;;;;;11.20;7.63;;;22.70;99.90;;;;;;6210585;23;20262;-73
2021/07/03 09:30:33;;;;;;;12.52;8.00;;;23.50;99.90;;;;;;6209648;23;20190;-72
2021/07/03 09:33:00;;;;;;;10.38;7.80;;;24.50;99.90;;;;;;6210270;23;20189;-73
2021/07/03 09:35:27;;;;;;;10.65;7.53;;;24.60;99.90;;;;;;6210835;23;20190;-73
2021/07/03 09:38:03;;;;;;;11.52;6.95;;;24.70;99.90;;;;;;6209813;23;20187;-73
2021/07/03 09:40:31;;;;;;;10.52;7.07;;;24.80;99.90;;;;;;6209256;23;20182;-72
2021/07/03 09:43:08;;;;;;;10.45;6.97;;;24.10;99.90;;;;;;6210784;23;20561;-73
2021/07/03 09:45:35;;;;;;;9.18;7.20;;;24.10;99.90;;;;;;6210434;23;20178;-73
2021/07/03 09:48:07;;;;;;;8.85;6.28;;;24.60;99.90;;;;;;6210015;23;20179;-72
2021/07/03 09:50:34;;;;;;;9.23;6.63;;;24.20;99.90;;;;;;6209294;23;20179;-72
2021/07/03 09:53:02;;;;;;;10.07;6.90;;;25.00;99.90;;;;;;6209231;23;20518;-73
2021/07/03 09:55:29;;;;;;;9.88;6.85;;;24.80;99.90;;;;;;6208333;23;20182;-73
2021/07/03 09:58:13;;;;;;;9.75;6.45;;;24.60;99.90;;;;;;6207873;23;20289;-73
2021/07/03 10:00:41;;;;;;;11.15;7.20;;;24.80;99.90;;;;;;6210137;23;20649;-73
2021/07/03 10:03:09;;;;;;;8.07;6.28;;;25.20;99.90;;;;;;6211144;23;20637;-72
2021/07/03 10:05:40;;;;;;;10.02;6.30;;;25.60;99.90;;;;;;6191633;22;20203;-75
2021/07/03 10:08:12;;;;;;;6.50;5.65;;;25.90;99.90;;;;;;6178861;23;20183;-76
2021/07/03 10:10:43;;;;;;;9.00;6.30;;;26.30;99.90;;;;;;6177912;23;20184;-75
2021/07/03 10:13:16;;;;;;;9.57;6.80;;;26.30;99.90;;;;;;6179183;23;20186;-76
2021/07/03 10:15:43;;;;;;;9.65;6.93;;;25.80;99.90;;;;;;6179443;23;20183;-75
2021/07/03 10:18:15;;;;;;;10.52;8.18;;;25.50;99.90;;;;;;6179355;23;20551;-75
2021/07/03 10:20:42;;;;;;;9.15;7.47;;;25.30;99.90;;;;;;6177475;23;20518;-75
2021/07/03 10:23:12;;;;;;;12.07;7.28;;;25.60;99.90;;;;;;6179447;23;20180;-75
2021/07/03 10:25:41;;;;;;;13.50;8.50;;;25.30;99.90;;;;;;6175824;23;20176;-75
2021/07/03 10:28:10;;;;;;;11.05;7.22;;;24.70;99.90;;;;;;6179422;23;20183;-75
2021/07/03 10:30:39;;;;;;;12.85;8.05;;;24.70;99.90;;;;;;6179060;23;20179;-75
2021/07/03 10:33:12;;;;;;;11.80;7.32;;;25.20;99.90;;;;;;6180155;23;20183;-75
2021/07/03 10:35:44;;;;;;;8.85;6.82;;;25.60;99.90;;;;;;6180427;23;20550;-75
2021/07/03 10:38:24;;;;;;;10.35;7.40;;;24.90;99.90;;;;;;6179226;23;20259;-75
2021/07/03 10:40:52;;;;;;;10.07;6.03;;;24.90;99.90;;;;;;6179703;23;20215;-75
2021/07/03 10:43:21;;;;;;;11.13;7.57;;;25.90;99.90;;;;;;6178716;23;20180;-76
2021/07/03 10:45:49;;;;;;;9.57;7.05;;;26.20;99.90;;;;;;6180337;23;20183;-76
2021/07/03 10:48:19;;;;;;;10.30;7.53;;;26.30;99.90;;;;;;6181879;23;20828;-75
2021/07/03 10:50:46;;;;;;;9.05;6.63;;;26.60;99.90;;;;;;6181720;23;20202;-75
2021/07/03 10:53:23;;;;;;;8.93;6.68;;;26.90;99.90;;;;;;6181852;23;20180;-75
2021/07/03 10:55:51;;;;;;;6.88;6.05;;;27.00;99.90;;;;;;6182108;23;20187;-75
2021/07/03 10:58:19;;;;;;;9.02;6.10;;;26.10;99.90;;;;;;6182444;23;20186;-75
2021/07/03 11:00:49;;;;;;;6.70;5.40;;;26.70;99.90;;;;;;6181121;23;20179;-75
2021/07/03 11:03:17;;;;;;;8.30;6.28;;;26.50;99.90;;;;;;6181341;23;20267;-75
2021/07/03 11:05:44;;;;;;;11.00;5.47;;;26.70;99.90;;;;;;6182384;23;20192;-75
2021/07/03 11:08:13;;;;;;;7.88;5.60;;;26.70;99.90;;;;;;6181537;23;20239;-75
2021/07/03 11:10:42;;;;;;;8.43;5.93;;;26.70;99.90;;;;;;6181210;23;20534;-75
2021/07/03 11:13:19;;;;;;;6.30;5.32;;;26.80;99.90;;;;;;6182090;23;20518;-75
2021/07/03 11:15:47;;;;;;;7.88;5.65;;;27.00;99.90;;;;;;6182610;23;20186;-75
2021/07/03 11:18:14;;;;;;;7.05;5.32;;;26.80;99.90;;;;;;6181902;23;20275;-75
2021/07/03 11:20:42;;;;;;;7.57;5.65;;;26.20;99.90;;;;;;6181585;23;20573;-75
2021/07/03 11:23:11;;;;;;;5.95;5.28;;;26.40;99.90;;;;;;6182437;23;20180;-74
2021/07/03 11:25:42;;;;;;;8.60;5.38;;;26.60;99.90;;;;;;6182202;23;20183;-74
2021/07/03 11:28:10;;;;;;;7.32;5.13;;;25.90;99.90;;;;;;6181580;23;20188;-74
2021/07/03 11:30:39;;;;;;;6.45;4.85;;;26.00;99.90;;;;;;6181674;23;20267;-74
2021/07/03 11:33:07;;;;;;;5.72;5.07;;;26.80;99.90;;;;;;6182064;23;20206;-75
2021/07/03 11:35:36;;;;;;;6.68;5.32;;;26.80;99.90;;;;;;6181766;23;20514;-75
2021/07/03 11:38:03;;;;;;;6.97;4.78;;;26.10;99.90;;;;;;6181145;23;20179;-75
2021/07/03 11:40:33;;;;;;;6.38;4.93;;;27.20;99.90;;;;;;6182112;23;20179;-75
2021/07/03 11:43:05;;;;;;;5.95;5.00;;;27.40;99.90;;;;;;6181918;23;20176;-75
2021/07/03 11:45:34;;;;;;;5.60;4.80;;;27.20;99.90;;;;;;6181558;23;20266;-75
2021/07/03 11:48:07;;;;;;;6.78;5.38;;;27.30;99.90;;;;;;6181651;23;20202;-75
2021/07/03 11:50:36;;;;;;;6.05;4.85;;;26.90;99.90;;;;;;6181927;23;20191;-75
2021/07/03 11:53:05;;;;;;;5.18;4.68;;;27.40;99.90;;;;;;6181921;23;20199;-75
2021/07/03 11:55:34;;;;;;;5.72;4.40;;;27.50;99.90;;;;;;6181216;23;20227;-75
2021/07/03 11:58:03;;;;;;;7.50;4.82;;;27.30;99.90;;;;;;6181537;23;20188;-75
2021/07/03 12:00:32;;;;;;;6.63;4.47;;;27.70;99.90;;;;;;6181896;23;20184;-75
2021/07/03 12:03:00;;;;;;;5.35;4.32;;;27.60;99.90;;;;;;6181292;23;20186;-75
2021/07/03 12:05:29;;;;;;;6.38;5.00;;;27.10;99.90;;;;;;6181228;23;20507;-75
2021/07/03 12:07:58;;;;;;;5.63;5.07;;;26.50;99.90;;;;;;6182290;23;20201;-75
2021/07/03 12:10:37;;;;;;;5.43;4.90;;;26.10;99.90;;;;;;6181336;23;20266;-75
2021/07/03 12:13:08;;;;;;;5.43;4.75;;;26.70;99.90;;;;;;6181577;23;20204;-75
2021/07/03 12:15:35;;;;;;;6.88;5.18;;;26.60;99.90;;;;;;6181425;23;20179;-75
2021/07/03 12:18:03;;;;;;;5.55;4.80;;;26.00;99.90;;;;;;6181330;23;20222;-74
2021/07/03 12:20:31;;;;;;;5.60;5.07;;;26.80;99.90;;;;;;6182325;23;20215;-75
2021/07/03 12:23:01;;;;;;;6.40;5.20;;;27.40;99.90;;;;;;6181428;23;20175;-75
2021/07/03 12:25:28;;;;;;;5.45;4.55;;;27.50;99.90;;;;;;6181031;23;20645;-75
2021/07/03 12:27:58;;;;;;;6.07;4.63;;;27.70;99.90;;;;;;6182028;23;20206;-75
2021/07/03 12:30:28;;;;;;;4.88;4.03;;;27.70;99.90;;;;;;6181418;23;20518;-75
2021/07/03 12:33:03;;;;;;;5.22;4.65;;;27.90;99.90;;;;;;6181400;23;20214;-75
2021/07/03 12:35:35;;;;;;;4.65;4.25;;;27.90;99.90;;;;;;6180651;23;20190;-75